Time;durP1;ratioP1;P1;durP2;ratioP2;P2;SDS_P1;SDS_P2;PMS_P1;PMS_P2;Temp;Humidity;BMP_temperature;BMP_pressure;BME280_temperature;BME280_humidity;BME280_pressure;Samples;Min_cycle;Max_cycle;Signal;HPM_P1;HPM_P2
2021/12/07 00:01:13;;;;;;;15.20;8.35;;;;;;;;;;5058599;28;20076;-82
2021/12/07 00:03:39;;;;;;;20.23;10.60;;;;;;;;;;5059551;28;20076;-82
2021/12/07 00:06:07;;;;;;;18.40;8.57;;;;;;;;;;5060900;28;20036;-82
2021/12/07 00:08:35;;;;;;;16.45;8.63;;;;;;;;;;5059564;28;20037;-82
2021/12/07 00:11:02;;;;;;;19.70;9.90;;;;;;;;;;5057478;28;20377;-83
2021/12/07 00:13:32;;;;;;;15.98;8.50;;;;;;;;;;5059290;28;20064;-82
2021/12/07 00:15:59;;;;;;;17.30;9.02;;;;;;;;;;5060392;28;20420;-82
2021/12/07 00:18:26;;;;;;;16.73;8.85;;;;;;;;;;5061247;28;20041;-83
2021/12/07 00:20:52;;;;;;;18.25;8.38;;;;;;;;;;5061333;28;20347;-83
2021/12/07 00:23:19;;;;;;;15.65;8.55;;;;;;;;;;5060490;28;20045;-82
2021/12/07 00:25:47;;;;;;;17.25;7.88;;;;;;;;;;5061309;28;20076;-82
2021/12/07 00:28:13;;;;;;;16.48;8.27;;;;;;;;;;5059810;28;20049;-82
2021/12/07 00:30:40;;;;;;;17.10;8.57;;;;;;;;;;5058104;28;20041;-83
2021/12/07 00:33:13;;;;;;;14.63;7.07;;;;;;;;;;5061308;28;20051;-82
2021/12/07 00:35:40;;;;;;;15.13;7.25;;;;;;;;;;5062154;28;20043;-83
2021/12/07 00:38:10;;;;;;;14.18;7.57;;;;;;;;;;5069135;28;20163;-82
2021/12/07 00:40:37;;;;;;;16.20;7.80;;;;;;;;;;5065388;28;20041;-83
2021/12/07 00:43:05;;;;;;;15.77;6.80;;;;;;;;;;5061806;28;20477;-82
2021/12/07 00:45:34;;;;;;;15.63;7.50;;;;;;;;;;5061562;28;20037;-82
2021/12/07 00:48:01;;;;;;;15.05;8.23;;;;;;;;;;5059498;28;20037;-82
2021/12/07 00:50:28;;;;;;;12.18;6.35;;;;;;;;;;5061298;28;20045;-82
2021/12/07 00:52:56;;;;;;;13.70;6.93;;;;;;;;;;5060559;28;20041;-82
2021/12/07 00:55:25;;;;;;;11.68;6.13;;;;;;;;;;5060197;28;20064;-83
2021/12/07 00:57:54;;;;;;;11.40;6.05;;;;;;;;;;5061475;28;20582;-83
2021/12/07 01:00:22;;;;;;;13.00;6.00;;;;;;;;;;5062162;28;20045;-82
2021/12/07 01:02:48;;;;;;;13.07;5.88;;;;;;;;;;5062571;28;20041;-83
2021/12/07 01:05:21;;;;;;;13.23;6.72;;;;;;;;;;5063134;28;20048;-82
2021/12/07 01:08:08;;;;;;;14.98;6.38;;;;;;;;;;5064283;28;20045;-82
2021/12/07 01:27:05;;;;;;;8.98;4.93;;;;;;;;;;5059985;28;20175;-82
2021/12/07 01:29:32;;;;;;;10.93;5.05;;;;;;;;;;5059645;28;20124;-83
2021/12/07 01:32:11;;;;;;;9.02;4.95;;;;;;;;;;5059454;28;20045;-82
2021/12/07 01:35:25;;;;;;;10.82;5.30;;;;;;;;;;5060034;28;20044;-82
2021/12/07 01:38:08;;;;;;;9.35;5.13;;;;;;;;;;5059418;28;20065;-83
2021/12/07 01:41:04;;;;;;;10.38;4.82;;;;;;;;;;5061399;28;20041;-82
2021/12/07 01:46:48;;;;;;;8.35;4.57;;;;;;;;;;5060851;28;20064;-82
2021/12/07 01:52:27;;;;;;;8.30;4.53;;;;;;;;;;5059389;28;20047;-82
2021/12/07 01:57:55;;;;;;;10.15;5.13;;;;;;;;;;5062775;28;20086;-82
2021/12/07 02:00:25;;;;;;;9.98;5.13;;;;;;;;;;5059661;28;20465;-82
2021/12/07 02:02:52;;;;;;;8.07;4.45;;;;;;;;;;5059738;28;20079;-82
2021/12/07 02:05:20;;;;;;;7.85;4.25;;;;;;;;;;5062410;28;20080;-82
2021/12/07 02:07:47;;;;;;;9.25;5.05;;;;;;;;;;5060056;28;20036;-82
2021/12/07 02:10:18;;;;;;;9.10;4.70;;;;;;;;;;5063152;28;20060;-82
2021/12/07 02:12:46;;;;;;;8.65;4.55;;;;;;;;;;5056185;28;20076;-81
2021/12/07 02:15:15;;;;;;;9.80;4.68;;;;;;;;;;5059278;28;20053;-81
2021/12/07 02:17:43;;;;;;;8.60;4.68;;;;;;;;;;5059584;28;20102;-81
2021/12/07 02:20:11;;;;;;;10.55;5.20;;;;;;;;;;5064660;28;20036;-82
2021/12/07 02:22:39;;;;;;;9.60;5.05;;;;;;;;;;5059272;28;20070;-82
2021/12/07 02:25:08;;;;;;;11.18;4.75;;;;;;;;;;5060559;28;20045;-82
2021/12/07 02:27:34;;;;;;;9.77;5.10;;;;;;;;;;5060999;28;20052;-82
2021/12/07 02:30:02;;;;;;;8.60;4.95;;;;;;;;;;5062850;28;20093;-82
2021/12/07 02:32:28;;;;;;;9.70;6.22;;;;;;;;;;5061517;28;20259;-82
2021/12/07 02:34:58;;;;;;;12.85;6.07;;;;;;;;;;5072302;28;20033;-82
2021/12/07 02:37:25;;;;;;;11.40;5.80;;;;;;;;;;5067031;28;20515;-82
2021/12/07 02:39:54;;;;;;;11.27;5.93;;;;;;;;;;5061387;28;20072;-82
2021/12/07 02:42:21;;;;;;;11.00;5.78;;;;;;;;;;5054369;28;20041;-82
2021/12/07 02:44:48;;;;;;;12.95;6.05;;;;;;;;;;5056512;28;20065;-82
2021/12/07 02:47:14;;;;;;;11.70;5.95;;;;;;;;;;5055122;28;20076;-82
2021/12/07 02:49:41;;;;;;;11.52;5.13;;;;;;;;;;5062929;28;20051;-82
2021/12/07 02:52:08;;;;;;;9.88;5.32;;;;;;;;;;5053323;28;20079;-81
2021/12/07 02:54:36;;;;;;;10.57;4.95;;;;;;;;;;5057805;28;20068;-81
2021/12/07 02:57:05;;;;;;;11.30;5.57;;;;;;;;;;5058275;28;20049;-82
2021/12/07 02:59:33;;;;;;;11.18;5.85;;;;;;;;;;5061641;28;20051;-83
2021/12/07 03:02:03;;;;;;;9.90;5.20;;;;;;;;;;5059790;28;20120;-82
2021/12/07 03:04:34;;;;;;;9.38;4.97;;;;;;;;;;5075992;28;20070;-83
2021/12/07 03:07:09;;;;;;;9.88;5.15;;;;;;;;;;5060280;28;20549;-82
2021/12/07 03:10:08;;;;;;;9.18;5.00;;;;;;;;;;5061123;28;20041;-82
2021/12/07 03:26:22;;;;;;;7.20;3.92;;;;;;;;;;5060807;28;20127;-83
2021/12/07 03:28:53;;;;;;;6.75;4.22;;;;;;;;;;5055874;28;20068;-82
2021/12/07 03:31:21;;;;;;;6.90;4.07;;;;;;;;;;5058134;28;20032;-82
2021/12/07 03:33:48;;;;;;;7.50;3.95;;;;;;;;;;5056340;28;20068;-82
2021/12/07 03:36:15;;;;;;;7.25;3.70;;;;;;;;;;5057051;28;20045;-82
2021/12/07 03:38:42;;;;;;;6.63;4.07;;;;;;;;;;5056346;28;20087;-83
2021/12/07 03:41:09;;;;;;;7.05;4.00;;;;;;;;;;5064626;28;20040;-83
2021/12/07 03:43:36;;;;;;;6.10;3.75;;;;;;;;;;5060506;28;20396;-82
2021/12/07 03:46:05;;;;;;;9.02;4.35;;;;;;;;;;5060412;28;20044;-83
2021/12/07 03:48:31;;;;;;;8.75;4.25;;;;;;;;;;5056962;28;20554;-82
2021/12/07 03:50:58;;;;;;;6.13;3.05;;;;;;;;;;5061003;28;20068;-82
2021/12/07 03:53:25;;;;;;;8.00;3.80;;;;;;;;;;5055035;28;20072;-82
2021/12/07 03:55:51;;;;;;;8.05;3.65;;;;;;;;;;5059540;28;20061;-82
2021/12/07 03:58:18;;;;;;;7.38;3.58;;;;;;;;;;5069846;28;20072;-82
2021/12/07 04:00:46;;;;;;;6.53;3.50;;;;;;;;;;5056527;28;20064;-83
2021/12/07 04:03:16;;;;;;;8.02;3.92;;;;;;;;;;5054841;28;20085;-83
2021/12/07 04:05:48;;;;;;;8.52;3.95;;;;;;;;;;5057817;28;20527;-82
2021/12/07 04:08:16;;;;;;;5.78;3.40;;;;;;;;;;5056849;28;20418;-82
2021/12/07 04:10:44;;;;;;;6.68;3.47;;;;;;;;;;5062692;28;20101;-83
2021/12/07 04:13:11;;;;;;;6.55;3.80;;;;;;;;;;5061096;28;20045;-83
2021/12/07 04:15:38;;;;;;;7.13;3.80;;;;;;;;;;5057144;28;20036;-83
2021/12/07 04:18:05;;;;;;;7.13;3.25;;;;;;;;;;5060413;28;20048;-83
2021/12/07 04:20:33;;;;;;;6.55;3.55;;;;;;;;;;5062145;28;20075;-84
2021/12/07 04:23:00;;;;;;;5.65;3.42;;;;;;;;;;5056616;28;20037;-83
2021/12/07 04:25:27;;;;;;;5.78;3.60;;;;;;;;;;5062448;28;20052;-83
2021/12/07 04:27:54;;;;;;;6.28;3.53;;;;;;;;;;5054583;28;20048;-83
2021/12/07 04:30:23;;;;;;;7.32;3.35;;;;;;;;;;5066109;28;20059;-83
2021/12/07 04:32:50;;;;;;;7.07;3.72;;;;;;;;;;5067170;28;20659;-83
2021/12/07 04:35:17;;;;;;;7.95;4.20;;;;;;;;;;5063185;28;20067;-83
2021/12/07 04:37:45;;;;;;;8.20;3.42;;;;;;;;;;5056387;28;20041;-82
2021/12/07 04:40:16;;;;;;;5.93;3.80;;;;;;;;;;5058470;28;20041;-83
2021/12/07 04:42:44;;;;;;;6.22;3.65;;;;;;;;;;5058648;28;20426;-83
2021/12/07 04:45:21;;;;;;;6.57;3.80;;;;;;;;;;5056510;28;20048;-83
2021/12/07 04:47:59;;;;;;;9.93;4.60;;;;;;;;;;5059908;28;20158;-83
2021/12/07 04:50:41;;;;;;;8.48;4.00;;;;;;;;;;5057961;28;20136;-83
2021/12/07 04:58:37;;;;;;;5.47;3.20;;;;;;;;;;5056176;28;20055;-83
2021/12/07 05:01:09;;;;;;;4.82;2.67;;;;;;;;;;5057091;28;20060;-84
2021/12/07 05:03:35;;;;;;;5.80;3.58;;;;;;;;;;5059468;28;20048;-84
2021/12/07 05:06:02;;;;;;;5.22;2.97;;;;;;;;;;5060885;28;20087;-84
2021/12/07 05:08:37;;;;;;;4.22;2.63;;;;;;;;;;5058431;28;20481;-84
2021/12/07 05:11:31;;;;;;;4.97;2.87;;;;;;;;;;5069336;28;20361;-83
2021/12/07 05:14:12;;;;;;;5.03;2.78;;;;;;;;;;5052600;28;20392;-84
2021/12/07 05:16:54;;;;;;;4.97;2.85;;;;;;;;;;5056833;28;20049;-84
2021/12/07 05:25:16;;;;;;;3.83;2.80;;;;;;;;;;5056027;28;20154;-84
2021/12/07 05:38:46;;;;;;;6.38;3.40;;;;;;;;;;5055241;28;20106;-83
2021/12/07 05:41:14;;;;;;;6.63;2.85;;;;;;;;;;5056095;28;20037;-83
2021/12/07 05:43:40;;;;;;;5.68;3.22;;;;;;;;;;5056589;28;20064;-85
2021/12/07 05:46:07;;;;;;;6.28;3.25;;;;;;;;;;5055782;28;20037;-83
2021/12/07 05:48:34;;;;;;;4.88;2.97;;;;;;;;;;5061208;28;20045;-84
2021/12/07 05:51:00;;;;;;;7.05;3.05;;;;;;;;;;5052956;28;20087;-84
2021/12/07 05:53:27;;;;;;;5.47;3.25;;;;;;;;;;5045836;28;20452;-83
2021/12/07 05:55:54;;;;;;;4.55;2.90;;;;;;;;;;5053958;28;20389;-84
2021/12/07 05:58:22;;;;;;;4.95;3.15;;;;;;;;;;5053666;28;20084;-84
2021/12/07 06:00:50;;;;;;;4.70;2.78;;;;;;;;;;5052685;28;20588;-84
2021/12/07 06:03:16;;;;;;;5.05;3.13;;;;;;;;;;5056009;28;20045;-84
2021/12/07 06:05:44;;;;;;;5.40;3.67;;;;;;;;;;5051587;28;20447;-84
2021/12/07 06:08:10;;;;;;;4.63;2.65;;;;;;;;;;5054905;28;20385;-83
2021/12/07 06:10:38;;;;;;;6.60;2.60;;;;;;;;;;5052490;28;20083;-85
2021/12/07 06:13:05;;;;;;;5.28;3.15;;;;;;;;;;5057659;28;20081;-85
2021/12/07 06:15:36;;;;;;;5.93;2.90;;;;;;;;;;5046259;28;20041;-84
2021/12/07 06:18:03;;;;;;;4.68;2.72;;;;;;;;;;5060195;28;20065;-85
2021/12/07 06:20:30;;;;;;;4.18;2.70;;;;;;;;;;5062677;28;20097;-85
2021/12/07 06:22:57;;;;;;;5.53;3.13;;;;;;;;;;5059063;28;20075;-86
2021/12/07 06:25:24;;;;;;;6.03;3.17;;;;;;;;;;5062386;28;20037;-84
2021/12/07 06:27:51;;;;;;;5.88;2.80;;;;;;;;;;5074740;28;20032;-84
2021/12/07 06:30:17;;;;;;;3.63;2.35;;;;;;;;;;5066250;28;20319;-84
2021/12/07 06:32:45;;;;;;;4.55;2.75;;;;;;;;;;5060848;28;20383;-84
2021/12/07 06:35:12;;;;;;;4.05;2.42;;;;;;;;;;5057126;28;20086;-85
2021/12/07 06:37:39;;;;;;;4.18;2.42;;;;;;;;;;5058877;28;20069;-85
2021/12/07 06:40:08;;;;;;;4.30;2.60;;;;;;;;;;5059738;28;20317;-84
2021/12/07 06:42:36;;;;;;;6.93;2.42;;;;;;;;;;5061561;28;20056;-83
2021/12/07 06:45:02;;;;;;;4.40;2.53;;;;;;;;;;5060880;28;20118;-85
2021/12/07 06:47:29;;;;;;;5.00;3.00;;;;;;;;;;5058119;28;20474;-84
2021/12/07 06:49:57;;;;;;;6.35;2.75;;;;;;;;;;5062929;28;20566;-84
2021/12/07 06:52:23;;;;;;;4.43;2.70;;;;;;;;;;5057652;28;20068;-84
2021/12/07 06:54:50;;;;;;;6.15;2.83;;;;;;;;;;5064528;28;20041;-85
2021/12/07 06:57:17;;;;;;;4.90;2.83;;;;;;;;;;5066075;28;20044;-85
2021/12/07 06:59:44;;;;;;;5.30;2.85;;;;;;;;;;5060831;28;20241;-85
2021/12/07 07:02:11;;;;;;;8.45;3.33;;;;;;;;;;5060064;28;20041;-85
2021/12/07 07:04:37;;;;;;;3.70;2.60;;;;;;;;;;5062940;28;20056;-85
2021/12/07 07:07:05;;;;;;;5.30;3.25;;;;;;;;;;5057866;28;20508;-85
2021/12/07 07:09:32;;;;;;;6.95;3.20;;;;;;;;;;5052447;28;20041;-85
2021/12/07 07:11:59;;;;;;;4.72;2.67;;;;;;;;;;5040664;28;20045;-84
2021/12/07 07:14:25;;;;;;;6.28;3.35;;;;;;;;;;5057286;28;20049;-85
2021/12/07 07:16:52;;;;;;;5.60;2.60;;;;;;;;;;5059686;28;20088;-85
2021/12/07 07:19:19;;;;;;;6.25;2.72;;;;;;;;;;5058099;28;20763;-85
2021/12/07 07:21:45;;;;;;;6.78;2.53;;;;;;;;;;5060200;28;20049;-85
2021/12/07 07:24:13;;;;;;;6.65;3.13;;;;;;;;;;5057755;28;20044;-85
2021/12/07 07:26:40;;;;;;;6.45;2.50;;;;;;;;;;5057605;28;20041;-85
2021/12/07 07:29:07;;;;;;;5.38;2.83;;;;;;;;;;5059253;28;20554;-85
2021/12/07 07:31:36;;;;;;;6.10;2.83;;;;;;;;;;5057110;28;20041;-84
2021/12/07 07:34:03;;;;;;;6.05;2.85;;;;;;;;;;5056151;28;20060;-85
2021/12/07 07:36:29;;;;;;;4.55;3.33;;;;;;;;;;5057398;28;20505;-85
2021/12/07 07:38:56;;;;;;;5.43;2.88;;;;;;;;;;5061315;28;20445;-84
2021/12/07 07:41:24;;;;;;;4.47;2.83;;;;;;;;;;5057508;28;20045;-84
2021/12/07 07:43:51;;;;;;;6.93;2.35;;;;;;;;;;5060779;28;20040;-85
2021/12/07 07:46:18;;;;;;;4.75;2.58;;;;;;;;;;5057780;28;20080;-85
2021/12/07 07:48:45;;;;;;;4.72;2.72;;;;;;;;;;5059202;28;20516;-84
2021/12/07 07:51:12;;;;;;;4.47;2.70;;;;;;;;;;5056996;28;20067;-85
2021/12/07 07:53:38;;;;;;;6.72;3.13;;;;;;;;;;5058377;28;20139;-85
2021/12/07 07:56:05;;;;;;;6.63;2.95;;;;;;;;;;5059965;28;20076;-85
2021/12/07 07:58:33;;;;;;;7.88;3.47;;;;;;;;;;5056946;28;20460;-86
2021/12/07 08:01:00;;;;;;;6.47;4.30;;;;;;;;;;5057682;28;20067;-86
2021/12/07 08:03:27;;;;;;;6.43;3.58;;;;;;;;;;5056895;28;20045;-85
2021/12/07 08:05:53;;;;;;;5.22;3.08;;;;;;;;;;5054572;28;20436;-85
2021/12/07 08:08:20;;;;;;;5.22;3.10;;;;;;;;;;5055117;28;20075;-85
2021/12/07 08:10:47;;;;;;;5.35;3.08;;;;;;;;;;5062324;28;20048;-85
2021/12/07 08:13:14;;;;;;;11.82;5.10;;;;;;;;;;5053925;28;20044;-85
2021/12/07 08:15:44;;;;;;;13.90;4.85;;;;;;;;;;5057280;28;20048;-86
2021/12/07 08:18:11;;;;;;;7.43;3.45;;;;;;;;;;5057613;28;20485;-86
2021/12/07 08:20:38;;;;;;;7.38;4.10;;;;;;;;;;5063073;28;20052;-86
2021/12/07 08:23:05;;;;;;;6.55;3.97;;;;;;;;;;5065107;28;20033;-85
2021/12/07 08:25:33;;;;;;;5.13;3.25;;;;;;;;;;5061660;28;20036;-85
2021/12/07 08:27:59;;;;;;;4.03;2.25;;;;;;;;;;5053087;28;20057;-85
2021/12/07 08:30:26;;;;;;;4.18;2.20;;;;;;;;;;5060161;28;20045;-85
2021/12/07 08:32:54;;;;;;;4.38;2.53;;;;;;;;;;5053058;28;20036;-85
2021/12/07 08:35:22;;;;;;;5.40;3.05;;;;;;;;;;5052511;28;20098;-85
2021/12/07 08:37:49;;;;;;;5.25;2.50;;;;;;;;;;5053626;28;20091;-85
2021/12/07 08:40:18;;;;;;;4.60;2.50;;;;;;;;;;5055482;28;20278;-87
2021/12/07 08:42:45;;;;;;;6.32;3.20;;;;;;;;;;5059684;28;20454;-85
2021/12/07 08:45:11;;;;;;;4.13;2.28;;;;;;;;;;5048531;28;20099;-85
2021/12/07 08:47:38;;;;;;;7.55;4.13;;;;;;;;;;5053125;28;20147;-86
2021/12/07 08:50:09;;;;;;;3.38;2.17;;;;;;;;;;5056934;28;20110;-85
2021/12/07 08:52:36;;;;;;;4.60;2.17;;;;;;;;;;5053584;28;20079;-85
2021/12/07 09:00:33;;;;;;;4.40;2.28;;;;;;;;;;5053155;28;20052;-86
2021/12/07 09:03:00;;;;;;;4.03;2.00;;;;;;;;;;5052038;28;20087;-86
2021/12/07 09:05:29;;;;;;;4.20;2.63;;;;;;;;;;5050413;28;20186;-85
2021/12/07 09:07:55;;;;;;;4.32;2.10;;;;;;;;;;5051753;28;20538;-86
2021/12/07 09:10:22;;;;;;;5.13;2.83;;;;;;;;;;5057007;28;20076;-85
2021/12/07 09:12:49;;;;;;;3.85;2.50;;;;;;;;;;5069622;28;20055;-85
2021/12/07 09:15:16;;;;;;;6.97;2.97;;;;;;;;;;5046912;28;20076;-85
2021/12/07 09:17:43;;;;;;;7.57;3.08;;;;;;;;;;5052002;28;20773;-85
2021/12/07 09:20:15;;;;;;;4.05;2.33;;;;;;;;;;5053710;28;20466;-85
2021/12/07 09:22:43;;;;;;;4.07;2.53;;;;;;;;;;5052354;28;20120;-86
2021/12/07 09:25:10;;;;;;;3.72;2.17;;;;;;;;;;5054398;28;20037;-86
2021/12/07 09:27:37;;;;;;;3.88;2.28;;;;;;;;;;5054105;28;20049;-84
2021/12/07 09:30:05;;;;;;;3.75;2.42;;;;;;;;;;5054250;28;20048;-84
2021/12/07 09:32:31;;;;;;;3.65;2.60;;;;;;;;;;5052974;28;20033;-85
2021/12/07 09:34:59;;;;;;;4.88;2.60;;;;;;;;;;5054937;28;20088;-85
2021/12/07 09:37:26;;;;;;;4.35;2.33;;;;;;;;;;5053815;28;20467;-85
2021/12/07 09:39:54;;;;;;;5.22;2.30;;;;;;;;;;5053780;28;20076;-84
2021/12/07 09:42:20;;;;;;;4.30;2.25;;;;;;;;;;5061393;28;20099;-85
2021/12/07 09:44:48;;;;;;;3.92;2.03;;;;;;;;;;5061653;28;20033;-85
2021/12/07 09:47:14;;;;;;;3.95;2.25;;;;;;;;;;5060257;28;20478;-84
2021/12/07 09:49:41;;;;;;;5.18;2.22;;;;;;;;;;5054630;28;20080;-85
2021/12/07 09:52:08;;;;;;;7.85;2.78;;;;;;;;;;5056072;28;20415;-84
2021/12/07 09:54:34;;;;;;;4.20;2.13;;;;;;;;;;5055606;28;20041;-85
2021/12/07 09:57:04;;;;;;;4.60;2.40;;;;;;;;;;5059275;28;20069;-85
2021/12/07 09:59:31;;;;;;;3.92;2.22;;;;;;;;;;5056385;28;20393;-85
2021/12/07 10:01:57;;;;;;;3.40;1.85;;;;;;;;;;5057651;28;20045;-84
2021/12/07 10:04:27;;;;;;;5.72;2.28;;;;;;;;;;5059547;28;20098;-85
2021/12/07 10:06:54;;;;;;;12.13;3.75;;;;;;;;;;5057794;28;20041;-84
2021/12/07 10:09:21;;;;;;;5.80;2.38;;;;;;;;;;5057209;28;20503;-85
2021/12/07 10:11:50;;;;;;;12.45;3.25;;;;;;;;;;5069066;28;20055;-85
2021/12/07 10:14:18;;;;;;;5.35;1.95;;;;;;;;;;5057426;28;20079;-85
2021/12/07 10:16:45;;;;;;;4.18;1.83;;;;;;;;;;5058805;28;20080;-85
2021/12/07 10:19:15;;;;;;;5.72;2.08;;;;;;;;;;5061601;28;20044;-85
2021/12/07 10:21:43;;;;;;;6.50;1.85;;;;;;;;;;5064066;28;20029;-84
2021/12/07 10:24:12;;;;;;;5.07;2.13;;;;;;;;;;5056701;28;20596;-84
2021/12/07 10:26:41;;;;;;;3.53;2.03;;;;;;;;;;5055862;28;20079;-85
2021/12/07 10:29:11;;;;;;;4.63;2.20;;;;;;;;;;5056470;28;20068;-85
2021/12/07 10:31:41;;;;;;;3.47;1.85;;;;;;;;;;5052673;28;20071;-85
2021/12/07 10:34:11;;;;;;;2.72;1.65;;;;;;;;;;5056206;28;20499;-85
2021/12/07 10:36:41;;;;;;;4.30;1.67;;;;;;;;;;5054673;28;20120;-85
2021/12/07 10:39:12;;;;;;;5.80;2.00;;;;;;;;;;5056669;28;20072;-85
2021/12/07 10:41:42;;;;;;;4.05;1.92;;;;;;;;;;5059213;28;20102;-85
2021/12/07 10:44:10;;;;;;;4.05;2.08;;;;;;;;;;5057218;28;20428;-84
2021/12/07 10:46:42;;;;;;;9.15;3.83;;;;;;;;;;5056402;28;20045;-84
2021/12/07 10:49:41;;;;;;;9.10;3.08;;;;;;;;;;5056002;28;20156;-84
2021/12/07 10:52:19;;;;;;;5.85;2.45;;;;;;;;;;5059550;28;20056;-85
2021/12/07 10:54:56;;;;;;;4.13;2.35;;;;;;;;;;5054788;28;20076;-84
2021/12/07 10:57:25;;;;;;;3.95;2.08;;;;;;;;;;5057503;28;20037;-84
2021/12/07 10:59:59;;;;;;;5.45;2.38;;;;;;;;;;5054719;28;20075;-84
2021/12/07 11:02:33;;;;;;;4.53;2.10;;;;;;;;;;5051222;28;20549;-84
2021/12/07 11:05:00;;;;;;;3.80;2.00;;;;;;;;;;5054512;28;20128;-84
2021/12/07 11:07:28;;;;;;;4.97;2.08;;;;;;;;;;5055184;28;20072;-84
2021/12/07 11:10:02;;;;;;;5.30;1.73;;;;;;;;;;5054618;28;20091;-84
2021/12/07 11:12:34;;;;;;;7.43;2.50;;;;;;;;;;5061686;28;20052;-85
2021/12/07 11:15:01;;;;;;;3.42;1.98;;;;;;;;;;5057724;28;20036;-84
2021/12/07 11:17:32;;;;;;;5.25;2.17;;;;;;;;;;5056198;28;20167;-85
2021/12/07 11:19:59;;;;;;;4.28;2.63;;;;;;;;;;5055984;28;20049;-85
2021/12/07 11:22:30;;;;;;;7.55;1.70;;;;;;;;;;5056092;28;20087;-84
2021/12/07 11:24:57;;;;;;;5.35;2.35;;;;;;;;;;5056783;28;20044;-84
2021/12/07 11:30:12;;;;;;;5.78;1.60;;;;;;;;;;5056229;28;20051;-85
2021/12/07 11:32:43;;;;;;;4.07;1.98;;;;;;;;;;5061902;28;20083;-84
2021/12/07 11:35:20;;;;;;;4.65;2.65;;;;;;;;;;5065427;28;20504;-84
2021/12/07 11:37:47;;;;;;;6.47;2.50;;;;;;;;;;5059359;28;20068;-85
2021/12/07 11:40:18;;;;;;;4.18;2.20;;;;;;;;;;5058550;28;20052;-84
2021/12/07 11:42:45;;;;;;;7.80;2.95;;;;;;;;;;5072226;28;20089;-85
2021/12/07 11:45:15;;;;;;;6.80;2.95;;;;;;;;;;5059579;28;20033;-85
2021/12/07 11:47:45;;;;;;;5.00;2.80;;;;;;;;;;5059698;28;20406;-84
2021/12/07 11:50:20;;;;;;;5.13;2.22;;;;;;;;;;5059042;28;20461;-85
2021/12/07 11:52:49;;;;;;;4.63;2.00;;;;;;;;;;5060477;28;20045;-84
2021/12/07 11:55:17;;;;;;;5.03;2.88;;;;;;;;;;5060862;28;20075;-84
2021/12/07 11:57:44;;;;;;;7.65;2.88;;;;;;;;;;5076644;28;20052;-84
2021/12/07 12:00:13;;;;;;;6.78;2.22;;;;;;;;;;5060180;28;20080;-84
2021/12/07 12:02:41;;;;;;;5.40;2.20;;;;;;;;;;5060229;28;20087;-84
2021/12/07 12:05:09;;;;;;;5.85;2.08;;;;;;;;;;5078133;28;20500;-85
2021/12/07 12:07:40;;;;;;;4.97;1.88;;;;;;;;;;5058428;28;20355;-84
2021/12/07 12:10:08;;;;;;;6.38;2.60;;;;;;;;;;5058660;28;20073;-84
2021/12/07 12:12:42;;;;;;;4.30;1.92;;;;;;;;;;5058100;28;20132;-84
2021/12/07 12:15:34;;;;;;;4.45;1.60;;;;;;;;;;5061551;28;20060;-83
2021/12/07 12:18:06;;;;;;;6.80;1.90;;;;;;;;;;5060810;28;20072;-84
2021/12/07 12:20:48;;;;;;;3.78;1.88;;;;;;;;;;5071855;28;20067;-84
2021/12/07 12:23:29;;;;;;;7.20;1.63;;;;;;;;;;5059540;28;20045;-84
2021/12/07 12:25:57;;;;;;;8.70;2.88;;;;;;;;;;5059033;28;20044;-84
2021/12/07 12:28:27;;;;;;;3.95;1.63;;;;;;;;;;5058474;28;20474;-84
2021/12/07 12:30:54;;;;;;;4.68;1.98;;;;;;;;;;5057219;28;20069;-84
2021/12/07 12:33:21;;;;;;;2.58;1.33;;;;;;;;;;5055777;28;20087;-84
2021/12/07 12:35:52;;;;;;;5.35;1.90;;;;;;;;;;5056486;28;20056;-84
2021/12/07 12:38:21;;;;;;;7.80;2.55;;;;;;;;;;5057349;28;20081;-85
2021/12/07 12:40:56;;;;;;;4.80;1.98;;;;;;;;;;5055870;28;20080;-84
2021/12/07 12:43:35;;;;;;;4.32;1.67;;;;;;;;;;5056201;28;20045;-84
2021/12/07 12:46:03;;;;;;;4.97;1.55;;;;;;;;;;5057184;28;20077;-85
2021/12/07 12:48:32;;;;;;;5.45;1.80;;;;;;;;;;5057662;28;20091;-85
2021/12/07 12:51:00;;;;;;;3.75;1.48;;;;;;;;;;5058352;28;20048;-84
2021/12/07 12:53:31;;;;;;;4.22;1.25;;;;;;;;;;5059020;28;20068;-84
2021/12/07 12:55:59;;;;;;;6.55;2.20;;;;;;;;;;5059573;28;20052;-84
2021/12/07 12:58:39;;;;;;;5.25;1.60;;;;;;;;;;5058483;28;20072;-85
2021/12/07 13:01:25;;;;;;;5.95;1.70;;;;;;;;;;5059273;28;20045;-84
2021/12/07 13:04:05;;;;;;;5.35;1.63;;;;;;;;;;5058449;28;20134;-84
2021/12/07 13:06:47;;;;;;;3.15;1.48;;;;;;;;;;5058360;28;20041;-85
2021/12/07 13:09:24;;;;;;;2.35;1.00;;;;;;;;;;5059188;28;20101;-84
2021/12/07 13:11:54;;;;;;;5.30;1.70;;;;;;;;;;5059483;28;20041;-85
2021/12/07 13:14:32;;;;;;;4.28;1.80;;;;;;;;;;5059219;28;20044;-85
2021/12/07 13:17:04;;;;;;;2.60;1.42;;;;;;;;;;5054839;28;20080;-85
2021/12/07 13:19:31;;;;;;;3.60;1.42;;;;;;;;;;5058697;28;20083;-84
2021/12/07 13:22:04;;;;;;;3.35;1.20;;;;;;;;;;5056995;28;20051;-85
2021/12/07 13:24:34;;;;;;;3.60;2.13;;;;;;;;;;5059108;28;20049;-85
2021/12/07 13:27:10;;;;;;;4.57;1.33;;;;;;;;;;5058711;28;20068;-85
2021/12/07 13:29:38;;;;;;;2.97;1.30;;;;;;;;;;5058966;28;20064;-84
2021/12/07 13:32:06;;;;;;;4.10;1.75;;;;;;;;;;5055231;28;20113;-85
2021/12/07 13:34:34;;;;;;;6.25;1.83;;;;;;;;;;5057275;28;20064;-85
2021/12/07 13:37:04;;;;;;;18.98;5.00;;;;;;;;;;5058976;28;20059;-84
2021/12/07 13:39:41;;;;;;;6.57;1.70;;;;;;;;;;5058317;28;20128;-85
2021/12/07 13:42:11;;;;;;;2.65;1.30;;;;;;;;;;5059113;28;20045;-85
2021/12/07 13:44:39;;;;;;;4.60;1.50;;;;;;;;;;5058513;28;20079;-85
2021/12/07 13:47:10;;;;;;;4.82;1.52;;;;;;;;;;5056789;28;20072;-85
2021/12/07 13:49:36;;;;;;;3.65;1.27;;;;;;;;;;5059102;28;20053;-85
2021/12/07 13:52:12;;;;;;;3.50;1.70;;;;;;;;;;5060148;28;20037;-85
2021/12/07 13:54:44;;;;;;;3.20;1.55;;;;;;;;;;5058542;28;20044;-85
2021/12/07 13:57:16;;;;;;;4.20;1.65;;;;;;;;;;5059133;28;20079;-86
2021/12/07 13:59:43;;;;;;;3.47;1.40;;;;;;;;;;5059369;28;20440;-85
2021/12/07 14:02:10;;;;;;;2.95;1.48;;;;;;;;;;5056623;28;20051;-85
2021/12/07 14:04:36;;;;;;;2.05;1.15;;;;;;;;;;5058126;28;20379;-85
2021/12/07 14:07:03;;;;;;;3.58;1.33;;;;;;;;;;5058114;28;20045;-85
2021/12/07 14:09:32;;;;;;;5.50;1.55;;;;;;;;;;5059013;28;20053;-85
2021/12/07 14:12:01;;;;;;;3.72;1.35;;;;;;;;;;5060748;28;20539;-84
2021/12/07 14:14:30;;;;;;;4.22;1.33;;;;;;;;;;5059327;28;20045;-84
2021/12/07 14:16:58;;;;;;;2.75;1.48;;;;;;;;;;5056182;28;20547;-84
2021/12/07 14:19:26;;;;;;;6.25;1.30;;;;;;;;;;5058927;28;20076;-84
2021/12/07 14:21:53;;;;;;;5.68;1.42;;;;;;;;;;5055986;28;20069;-84
2021/12/07 14:24:21;;;;;;;4.55;2.10;;;;;;;;;;5052824;28;20049;-84
2021/12/07 14:26:51;;;;;;;3.72;1.50;;;;;;;;;;5077845;28;20057;-84
2021/12/07 14:29:20;;;;;;;4.88;1.52;;;;;;;;;;5055743;28;20041;-84
2021/12/07 14:31:49;;;;;;;3.72;1.60;;;;;;;;;;5065211;28;20053;-84
2021/12/07 14:34:21;;;;;;;2.15;1.23;;;;;;;;;;5056424;28;20044;-84
2021/12/07 14:36:50;;;;;;;6.28;1.60;;;;;;;;;;5057879;28;20040;-84
2021/12/07 14:39:21;;;;;;;4.35;1.45;;;;;;;;;;5055858;28;20041;-84
2021/12/07 14:41:52;;;;;;;4.50;1.60;;;;;;;;;;5057958;28;20041;-84
2021/12/07 14:44:21;;;;;;;4.38;1.42;;;;;;;;;;5057102;28;20068;-84
2021/12/07 14:46:48;;;;;;;4.05;1.40;;;;;;;;;;5055567;28;20071;-84
2021/12/07 14:49:16;;;;;;;3.53;1.30;;;;;;;;;;5059343;28;20076;-84
2021/12/07 14:51:44;;;;;;;4.07;1.70;;;;;;;;;;5059806;28;20048;-85
2021/12/07 14:54:13;;;;;;;2.25;1.00;;;;;;;;;;5059348;28;20555;-85
2021/12/07 14:56:40;;;;;;;3.88;1.45;;;;;;;;;;5059628;28;20047;-84
2021/12/07 14:59:10;;;;;;;3.33;1.50;;;;;;;;;;5074191;28;20040;-84
2021/12/07 15:01:39;;;;;;;2.95;1.40;;;;;;;;;;5077377;28;20048;-84
2021/12/07 15:04:09;;;;;;;8.32;2.58;;;;;;;;;;5060000;28;20374;-85
2021/12/07 15:06:37;;;;;;;2.70;1.33;;;;;;;;;;5060992;28;20052;-84
2021/12/07 15:09:07;;;;;;;3.55;1.20;;;;;;;;;;5060718;28;20063;-84
2021/12/07 15:11:38;;;;;;;4.30;1.38;;;;;;;;;;5059884;28;20049;-85
2021/12/07 15:14:09;;;;;;;6.78;2.95;;;;;;;;;;5060444;28;20416;-85
2021/12/07 15:16:37;;;;;;;6.10;4.70;;;;;;;;;;5060126;28;20091;-85
2021/12/07 15:19:08;;;;;;;4.90;3.72;;;;;;;;;;5079508;28;20052;-85
2021/12/07 15:21:39;;;;;;;9.80;5.70;;;;;;;;;;5079574;28;20047;-85
2021/12/07 15:24:08;;;;;;;6.40;2.17;;;;;;;;;;5079369;28;20427;-85
2021/12/07 15:26:36;;;;;;;5.53;2.22;;;;;;;;;;5080425;28;20048;-85
2021/12/07 15:29:06;;;;;;;8.05;3.33;;;;;;;;;;5079753;28;20044;-85
2021/12/07 15:31:37;;;;;;;5.32;2.33;;;;;;;;;;5076721;28;20082;-85
2021/12/07 15:34:06;;;;;;;7.38;3.95;;;;;;;;;;5040281;28;20107;-85
2021/12/07 15:36:36;;;;;;;7.32;2.90;;;;;;;;;;5041409;28;20156;-85
2021/12/07 15:39:12;;;;;;;7.72;3.45;;;;;;;;;;5039627;28;20041;-85
2021/12/07 15:41:40;;;;;;;6.32;2.58;;;;;;;;;;5038880;28;20085;-85
2021/12/07 15:44:08;;;;;;;10.02;4.25;;;;;;;;;;5039591;28;20052;-85
2021/12/07 15:46:45;;;;;;;8.35;3.38;;;;;;;;;;5043505;28;20498;-85
2021/12/07 15:49:12;;;;;;;5.25;2.58;;;;;;;;;;5040904;28;20049;-86
2021/12/07 15:51:49;;;;;;;4.95;2.67;;;;;;;;;;5022432;28;20496;-85
2021/12/07 15:54:16;;;;;;;4.38;2.80;;;;;;;;;;5040451;28;20099;-85
2021/12/07 15:56:44;;;;;;;7.45;3.28;;;;;;;;;;5039158;28;20045;-85
2021/12/07 15:59:16;;;;;;;6.65;4.10;;;;;;;;;;5040234;28;20520;-85
2021/12/07 16:01:45;;;;;;;5.40;2.92;;;;;;;;;;5041456;28;20045;-85
2021/12/07 16:04:23;;;;;;;6.15;3.03;;;;;;;;;;5078158;28;20072;-84